CheckWX is a tool to help pilots better visualize weather data.  It is not intended as a substitute for an official pre-flight weather briefing.

15:29:22 UTC

KSLI TAF
Los Alamitos AAF Airport
Los Alamitos, California, USA
TAF KSLI 191300Z 1913/2019 VRB06KT 9999 SCT240 QNH2969INS BECMG 1920/1921 15009KT 9999 VCSH OVC080 QNH2960INS BECMG 2004/2005 15009KT 9999 VCSH OVC030 QNH2951INS BECMG 2012/2013 26010G15KT 8000 -SHRA OVC030 QNH2955INS TX22/1921Z TN06/2006Z

Nov-19@
13:00 UTC

Nov-19 @ 13:00 UTC

Nov-19@
20:00 UTC

Nov-19 @ 20:00 UTC

TAF KSLI 191300Z 1913/2019 VRB06KT 9999 SCT240 QNH2969INS
Wind
  • Variable at 6 KTS
Cloud Levels
  • Scattered at 24,000' AGL

Nov-19@
20:00 UTC

Nov-19 @ 20:00 UTC

Nov-20@
04:00 UTC

Nov-20 @ 04:00 UTC

BECMG 1920/1921 15009KT 9999 VCSH OVC080 QNH2960INS

Becoming

Becoming Conditions expected by Tue, Nov 19, 2019 @ 21:00 UTC

Wind
  • 150° at 9 KTS
Cloud Levels
  • Overcast at 8,000' AGL

Nov-20@
04:00 UTC

Nov-20 @ 04:00 UTC

Nov-20@
12:00 UTC

Nov-20 @ 12:00 UTC

BECMG 2004/2005 15009KT 9999 VCSH OVC030 QNH2951INS

Becoming

Becoming Conditions expected by Wed, Nov 20, 2019 @ 05:00 UTC

Wind
  • 150° at 9 KTS
Cloud Levels
  • Overcast at 3,000' AGL

Nov-20@
12:00 UTC

Nov-20 @ 12:00 UTC

Nov-20@
19:00 UTC

Nov-20 @ 19:00 UTC

BECMG 2012/2013 26010G15KT 8000 -SHRA OVC030 QNH2955INS TX22/1921Z TN06/2006Z

Becoming

Becoming Conditions expected by Wed, Nov 20, 2019 @ 13:00 UTC

Wind
  • 260° at 10 KTS
  • {Gusting to 15 KTS
Conditions
Light Rain
Cloud Levels
  • Overcast at 3,000' AGL